sensor_id;sensor_type;location;lat;lon;timestamp;temperature;humidity
17918;DHT22;9084;50.956;3.106;2022-08-19T00:00:36;18.40;99.90
17918;DHT22;9084;50.956;3.106;2022-08-19T00:03:08;18.30;99.90
17918;DHT22;9084;50.956;3.106;2022-08-19T00:05:34;18.30;99.90
17918;DHT22;9084;50.956;3.106;2022-08-19T00:08:00;18.30;99.90
17918;DHT22;9084;50.956;3.106;2022-08-19T00:10:26;18.20;99.90
17918;DHT22;9084;50.956;3.106;2022-08-19T00:12:54;18.20;99.90
17918;DHT22;9084;50.956;3.106;2022-08-19T00:15:25;18.20;99.90
17918;DHT22;9084;50.956;3.106;2022-08-19T00:17:53;18.20;99.90
17918;DHT22;9084;50.956;3.106;2022-08-19T00:20:21;18.20;99.90
17918;DHT22;9084;50.956;3.106;2022-08-19T00:22:48;18.20;99.90
17918;DHT22;9084;50.956;3.106;2022-08-19T00:25:15;18.20;99.90
17918;DHT22;9084;50.956;3.106;2022-08-19T00:27:40;18.10;99.90
17918;DHT22;9084;50.956;3.106;2022-08-19T00:30:09;18.10;99.90
17918;DHT22;9084;50.956;3.106;2022-08-19T00:32:36;18.10;99.90
17918;DHT22;9084;50.956;3.106;2022-08-19T00:35:04;18.10;99.90
17918;DHT22;9084;50.956;3.106;2022-08-19T00:37:30;18.10;99.90
17918;DHT22;9084;50.956;3.106;2022-08-19T00:39:56;18.10;99.90
17918;DHT22;9084;50.956;3.106;2022-08-19T00:42:22;18.00;99.90
17918;DHT22;9084;50.956;3.106;2022-08-19T00:44:48;18.00;99.90
17918;DHT22;9084;50.956;3.106;2022-08-19T00:47:15;17.90;99.90
17918;DHT22;9084;50.956;3.106;2022-08-19T00:49:48;18.00;99.90
17918;DHT22;9084;50.956;3.106;2022-08-19T00:52:30;18.00;99.90
17918;DHT22;9084;50.956;3.106;2022-08-19T00:54:58;18.00;99.90
17918;DHT22;9084;50.956;3.106;2022-08-19T00:57:34;18.00;99.90
17918;DHT22;9084;50.956;3.106;2022-08-19T01:00:00;17.90;99.90
17918;DHT22;9084;50.956;3.106;2022-08-19T01:02:31;17.90;99.90
17918;DHT22;9084;50.956;3.106;2022-08-19T01:05:02;17.90;99.90
17918;DHT22;9084;50.956;3.106;2022-08-19T01:07:33;17.80;99.90
17918;DHT22;9084;50.956;3.106;2022-08-19T01:10:06;17.90;99.90
17918;DHT22;9084;50.956;3.106;2022-08-19T01:12:33;17.90;99.90
17918;DHT22;9084;50.956;3.106;2022-08-19T01:14:59;17.80;99.90
17918;DHT22;9084;50.956;3.106;2022-08-19T01:17:28;17.80;99.90
17918;DHT22;9084;50.956;3.106;2022-08-19T01:19:53;17.80;99.90
17918;DHT22;9084;50.956;3.106;2022-08-19T01:22:28;17.80;99.90
17918;DHT22;9084;50.956;3.106;2022-08-19T01:24:55;17.80;99.90
17918;DHT22;9084;50.956;3.106;2022-08-19T01:27:22;17.70;99.90
17918;DHT22;9084;50.956;3.106;2022-08-19T01:29:48;17.70;99.90
17918;DHT22;9084;50.956;3.106;2022-08-19T01:32:17;17.70;99.90
17918;DHT22;9084;50.956;3.106;2022-08-19T01:34:45;17.70;99.90
17918;DHT22;9084;50.956;3.106;2022-08-19T01:37:13;17.70;99.90
17918;DHT22;9084;50.956;3.106;2022-08-19T01:39:40;17.70;99.90
17918;DHT22;9084;50.956;3.106;2022-08-19T01:42:08;17.70;99.90
17918;DHT22;9084;50.956;3.106;2022-08-19T01:44:37;17.60;99.90
17918;DHT22;9084;50.956;3.106;2022-08-19T01:47:04;17.70;99.90
17918;DHT22;9084;50.956;3.106;2022-08-19T01:49:32;17.60;99.90
17918;DHT22;9084;50.956;3.106;2022-08-19T01:52:00;17.70;99.90
17918;DHT22;9084;50.956;3.106;2022-08-19T01:54:26;17.70;99.90
17918;DHT22;9084;50.956;3.106;2022-08-19T01:57:02;17.60;99.90
17918;DHT22;9084;50.956;3.106;2022-08-19T01:59:29;17.60;99.90
17918;DHT22;9084;50.956;3.106;2022-08-19T02:01:58;17.60;99.90
17918;DHT22;9084;50.956;3.106;2022-08-19T02:04:26;17.70;99.90
17918;DHT22;9084;50.956;3.106;2022-08-19T02:06:54;17.70;99.90
17918;DHT22;9084;50.956;3.106;2022-08-19T02:09:22;17.70;99.90
17918;DHT22;9084;50.956;3.106;2022-08-19T02:11:48;17.80;99.90
17918;DHT22;9084;50.956;3.106;2022-08-19T02:14:14;17.80;99.90
17918;DHT22;9084;50.956;3.106;2022-08-19T02:16:45;17.80;99.90
17918;DHT22;9084;50.956;3.106;2022-08-19T02:19:11;17.70;99.90
17918;DHT22;9084;50.956;3.106;2022-08-19T02:21:40;17.70;99.90
17918;DHT22;9084;50.956;3.106;2022-08-19T02:24:06;17.70;99.90
17918;DHT22;9084;50.956;3.106;2022-08-19T02:26:34;17.70;99.90
17918;DHT22;9084;50.956;3.106;2022-08-19T02:29:00;17.70;99.90
17918;DHT22;9084;50.956;3.106;2022-08-19T02:31:28;17.70;99.90
17918;DHT22;9084;50.956;3.106;2022-08-19T02:33:59;17.70;99.90
17918;DHT22;9084;50.956;3.106;2022-08-19T02:36:28;17.70;99.90
17918;DHT22;9084;50.956;3.106;2022-08-19T02:38:55;17.70;99.90
17918;DHT22;9084;50.956;3.106;2022-08-19T02:41:26;17.60;99.90
17918;DHT22;9084;50.956;3.106;2022-08-19T02:43:53;17.60;99.90
17918;DHT22;9084;50.956;3.106;2022-08-19T02:46:25;17.60;99.90
17918;DHT22;9084;50.956;3.106;2022-08-19T02:48:54;17.60;99.90
17918;DHT22;9084;50.956;3.106;2022-08-19T02:51:23;17.60;99.90
17918;DHT22;9084;50.956;3.106;2022-08-19T02:53:50;17.60;99.90
17918;DHT22;9084;50.956;3.106;2022-08-19T02:56:17;17.60;99.90
17918;DHT22;9084;50.956;3.106;2022-08-19T02:58:44;17.50;99.90
17918;DHT22;9084;50.956;3.106;2022-08-19T03:01:26;17.50;99.90
17918;DHT22;9084;50.956;3.106;2022-08-19T03:03:53;17.50;99.90
17918;DHT22;9084;50.956;3.106;2022-08-19T03:06:22;17.60;99.90
17918;DHT22;9084;50.956;3.106;2022-08-19T03:08:49;17.60;99.90
17918;DHT22;9084;50.956;3.106;2022-08-19T03:11:24;17.60;99.90
17918;DHT22;9084;50.956;3.106;2022-08-19T03:13:55;17.60;99.90
17918;DHT22;9084;50.956;3.106;2022-08-19T03:16:24;17.60;99.90
17918;DHT22;9084;50.956;3.106;2022-08-19T03:18:51;17.60;99.90
17918;DHT22;9084;50.956;3.106;2022-08-19T03:21:20;17.60;99.90
17918;DHT22;9084;50.956;3.106;2022-08-19T03:23:50;17.60;99.90
17918;DHT22;9084;50.956;3.106;2022-08-19T03:26:21;17.70;99.90
17918;DHT22;9084;50.956;3.106;2022-08-19T03:28:47;17.60;99.90
17918;DHT22;9084;50.956;3.106;2022-08-19T03:31:19;17.60;99.90
17918;DHT22;9084;50.956;3.106;2022-08-19T03:33:53;17.60;99.90
17918;DHT22;9084;50.956;3.106;2022-08-19T03:36:24;17.60;99.90
17918;DHT22;9084;50.956;3.106;2022-08-19T03:38:56;17.60;99.90
17918;DHT22;9084;50.956;3.106;2022-08-19T03:41:27;17.60;99.90
17918;DHT22;9084;50.956;3.106;2022-08-19T03:43:56;17.60;99.90
17918;DHT22;9084;50.956;3.106;2022-08-19T03:46:26;17.60;99.90
17918;DHT22;9084;50.956;3.106;2022-08-19T03:48:53;17.60;99.90
17918;DHT22;9084;50.956;3.106;2022-08-19T03:51:25;17.60;99.90
17918;DHT22;9084;50.956;3.106;2022-08-19T03:53:55;17.60;99.90
17918;DHT22;9084;50.956;3.106;2022-08-19T03:56:25;17.60;99.90
17918;DHT22;9084;50.956;3.106;2022-08-19T03:58:53;17.60;99.90
17918;DHT22;9084;50.956;3.106;2022-08-19T04:01:23;17.70;99.90
17918;DHT22;9084;50.956;3.106;2022-08-19T04:03:50;17.60;99.90
17918;DHT22;9084;50.956;3.106;2022-08-19T04:06:24;17.70;99.90
17918;DHT22;9084;50.956;3.106;2022-08-19T04:08:52;17.70;99.90
17918;DHT22;9084;50.956;3.106;2022-08-19T04:11:30;17.70;99.90
17918;DHT22;9084;50.956;3.106;2022-08-19T04:13:59;17.70;99.90
17918;DHT22;9084;50.956;3.106;2022-08-19T04:16:28;17.70;99.90
17918;DHT22;9084;50.956;3.106;2022-08-19T04:18:59;17.80;99.90
17918;DHT22;9084;50.956;3.106;2022-08-19T04:21:28;17.80;99.90
17918;DHT22;9084;50.956;3.106;2022-08-19T04:23:56;17.80;99.90
17918;DHT22;9084;50.956;3.106;2022-08-19T04:26:28;17.80;99.90
17918;DHT22;9084;50.956;3.106;2022-08-19T04:28:55;17.90;99.90
17918;DHT22;9084;50.956;3.106;2022-08-19T04:31:24;17.90;99.90
17918;DHT22;9084;50.956;3.106;2022-08-19T04:33:54;17.90;99.90
17918;DHT22;9084;50.956;3.106;2022-08-19T04:36:25;18.00;99.90
17918;DHT22;9084;50.956;3.106;2022-08-19T04:38:54;18.00;99.90
17918;DHT22;9084;50.956;3.106;2022-08-19T04:41:20;18.10;99.90
17918;DHT22;9084;50.956;3.106;2022-08-19T04:44:08;18.10;99.90
17918;DHT22;9084;50.956;3.106;2022-08-19T04:46:34;18.20;99.90
17918;DHT22;9084;50.956;3.106;2022-08-19T04:49:04;18.20;99.90
17918;DHT22;9084;50.956;3.106;2022-08-19T04:51:33;18.30;99.90
17918;DHT22;9084;50.956;3.106;2022-08-19T04:54:03;18.30;99.90
17918;DHT22;9084;50.956;3.106;2022-08-19T04:56:29;18.40;99.90
17918;DHT22;9084;50.956;3.106;2022-08-19T04:58:59;18.50;99.90
17918;DHT22;9084;50.956;3.106;2022-08-19T05:01:30;18.50;99.90
17918;DHT22;9084;50.956;3.106;2022-08-19T05:04:00;18.60;99.90
17918;DHT22;9084;50.956;3.106;2022-08-19T05:06:27;18.60;99.90
17918;DHT22;9084;50.956;3.106;2022-08-19T05:08:58;18.70;99.90
17918;DHT22;9084;50.956;3.106;2022-08-19T05:11:26;18.70;99.90
17918;DHT22;9084;50.956;3.106;2022-08-19T05:13:52;18.80;99.90
17918;DHT22;9084;50.956;3.106;2022-08-19T05:16:21;18.80;99.90
17918;DHT22;9084;50.956;3.106;2022-08-19T05:18:50;18.90;99.90
17918;DHT22;9084;50.956;3.106;2022-08-19T05:21:38;19.00;99.90
17918;DHT22;9084;50.956;3.106;2022-08-19T05:24:23;19.00;99.90
17918;DHT22;9084;50.956;3.106;2022-08-19T05:26:53;19.00;99.90
17918;DHT22;9084;50.956;3.106;2022-08-19T05:29:25;19.10;99.90
17918;DHT22;9084;50.956;3.106;2022-08-19T05:31:57;19.10;99.90
17918;DHT22;9084;50.956;3.106;2022-08-19T05:34:24;19.20;99.90
17918;DHT22;9084;50.956;3.106;2022-08-19T05:36:56;19.20;99.90
17918;DHT22;9084;50.956;3.106;2022-08-19T05:39:27;19.20;99.90
17918;DHT22;9084;50.956;3.106;2022-08-19T05:41:59;19.30;99.90
17918;DHT22;9084;50.956;3.106;2022-08-19T05:44:28;19.40;99.90
17918;DHT22;9084;50.956;3.106;2022-08-19T05:47:00;19.40;99.90
17918;DHT22;9084;50.956;3.106;2022-08-19T05:49:27;19.50;99.90
17918;DHT22;9084;50.956;3.106;2022-08-19T05:51:56;19.60;99.90
17918;DHT22;9084;50.956;3.106;2022-08-19T05:54:25;19.70;99.90
17918;DHT22;9084;50.956;3.106;2022-08-19T05:56:56;19.70;99.90
17918;DHT22;9084;50.956;3.106;2022-08-19T05:59:25;19.70;99.90
17918;DHT22;9084;50.956;3.106;2022-08-19T06:01:54;19.70;99.90
17918;DHT22;9084;50.956;3.106;2022-08-19T06:04:23;19.80;99.90
17918;DHT22;9084;50.956;3.106;2022-08-19T06:06:51;19.80;99.90
17918;DHT22;9084;50.956;3.106;2022-08-19T06:09:18;19.90;99.90
17918;DHT22;9084;50.956;3.106;2022-08-19T06:11:48;19.90;99.90
17918;DHT22;9084;50.956;3.106;2022-08-19T06:14:19;19.90;99.90
17918;DHT22;9084;50.956;3.106;2022-08-19T06:16:49;20.00;99.90
17918;DHT22;9084;50.956;3.106;2022-08-19T06:19:19;20.10;99.90
17918;DHT22;9084;50.956;3.106;2022-08-19T06:21:51;20.10;99.90
17918;DHT22;9084;50.956;3.106;2022-08-19T06:24:21;20.20;99.90
17918;DHT22;9084;50.956;3.106;2022-08-19T06:26:48;20.30;99.90
17918;DHT22;9084;50.956;3.106;2022-08-19T06:29:17;20.40;99.90
17918;DHT22;9084;50.956;3.106;2022-08-19T06:31:46;20.40;99.90
17918;DHT22;9084;50.956;3.106;2022-08-19T06:34:13;20.40;99.90
17918;DHT22;9084;50.956;3.106;2022-08-19T06:36:42;20.40;99.90
17918;DHT22;9084;50.956;3.106;2022-08-19T06:39:15;20.40;99.90
17918;DHT22;9084;50.956;3.106;2022-08-19T06:41:48;20.40;99.90
17918;DHT22;9084;50.956;3.106;2022-08-19T06:44:22;20.50;99.90
17918;DHT22;9084;50.956;3.106;2022-08-19T06:46:50;20.50;99.90
17918;DHT22;9084;50.956;3.106;2022-08-19T06:49:17;20.60;99.90
17918;DHT22;9084;50.956;3.106;2022-08-19T06:51:47;20.60;99.90
17918;DHT22;9084;50.956;3.106;2022-08-19T06:54:17;20.70;99.90
17918;DHT22;9084;50.956;3.106;2022-08-19T06:56:44;20.70;99.90
17918;DHT22;9084;50.956;3.106;2022-08-19T06:59:13;20.70;99.90
17918;DHT22;9084;50.956;3.106;2022-08-19T07:01:43;20.70;99.90
17918;DHT22;9084;50.956;3.106;2022-08-19T07:04:15;20.70;99.90
17918;DHT22;9084;50.956;3.106;2022-08-19T07:06:42;20.80;99.90
17918;DHT22;9084;50.956;3.106;2022-08-19T07:09:13;20.70;99.90
17918;DHT22;9084;50.956;3.106;2022-08-19T07:11:47;20.80;99.90
17918;DHT22;9084;50.956;3.106;2022-08-19T07:14:14;20.80;99.90
17918;DHT22;9084;50.956;3.106;2022-08-19T07:16:45;20.80;99.90
17918;DHT22;9084;50.956;3.106;2022-08-19T07:19:12;20.80;99.90
17918;DHT22;9084;50.956;3.106;2022-08-19T07:21:38;20.90;99.90
17918;DHT22;9084;50.956;3.106;2022-08-19T07:24:05;21.00;99.90
17918;DHT22;9084;50.956;3.106;2022-08-19T07:26:38;21.00;99.90
17918;DHT22;9084;50.956;3.106;2022-08-19T07:29:05;21.10;99.90
17918;DHT22;9084;50.956;3.106;2022-08-19T07:31:32;21.10;99.90
17918;DHT22;9084;50.956;3.106;2022-08-19T07:34:03;21.10;99.90
17918;DHT22;9084;50.956;3.106;2022-08-19T07:36:33;21.20;99.90
17918;DHT22;9084;50.956;3.106;2022-08-19T07:39:04;21.10;99.90
17918;DHT22;9084;50.956;3.106;2022-08-19T07:41:31;21.10;99.90
17918;DHT22;9084;50.956;3.106;2022-08-19T07:43:58;21.00;99.90
17918;DHT22;9084;50.956;3.106;2022-08-19T07:46:27;21.00;99.90
17918;DHT22;9084;50.956;3.106;2022-08-19T07:48:53;21.10;99.90
17918;DHT22;9084;50.956;3.106;2022-08-19T07:51:20;21.20;99.90
17918;DHT22;9084;50.956;3.106;2022-08-19T07:53:48;21.40;99.90
17918;DHT22;9084;50.956;3.106;2022-08-19T07:56:20;21.60;99.90
17918;DHT22;9084;50.956;3.106;2022-08-19T07:58:50;21.70;99.90
17918;DHT22;9084;50.956;3.106;2022-08-19T08:01:20;21.80;99.90
17918;DHT22;9084;50.956;3.106;2022-08-19T08:03:48;21.90;99.90
17918;DHT22;9084;50.956;3.106;2022-08-19T08:06:32;22.10;99.90
17918;DHT22;9084;50.956;3.106;2022-08-19T08:09:23;22.20;99.90
17918;DHT22;9084;50.956;3.106;2022-08-19T08:11:59;22.30;99.90
17918;DHT22;9084;50.956;3.106;2022-08-19T08:14:47;22.30;99.90
17918;DHT22;9084;50.956;3.106;2022-08-19T08:17:16;22.40;99.90
17918;DHT22;9084;50.956;3.106;2022-08-19T08:19:44;22.50;99.90
17918;DHT22;9084;50.956;3.106;2022-08-19T08:22:11;22.70;94.30
17918;DHT22;9084;50.956;3.106;2022-08-19T08:25:11;22.80;92.70
17918;DHT22;9084;50.956;3.106;2022-08-19T08:27:42;23.10;82.20
17918;DHT22;9084;50.956;3.106;2022-08-19T08:30:11;23.00;73.30
17918;DHT22;9084;50.956;3.106;2022-08-19T08:32:39;22.90;66.50
17918;DHT22;9084;50.956;3.106;2022-08-19T08:35:10;22.90;72.40
17918;DHT22;9084;50.956;3.106;2022-08-19T08:37:36;22.70;83.70
17918;DHT22;9084;50.956;3.106;2022-08-19T08:45:30;22.70;89.00
17918;DHT22;9084;50.956;3.106;2022-08-19T08:48:03;23.00;82.40
17918;DHT22;9084;50.956;3.106;2022-08-19T08:50:37;23.30;71.20
17918;DHT22;9084;50.956;3.106;2022-08-19T08:53:09;23.50;43.70
17918;DHT22;9084;50.956;3.106;2022-08-19T08:55:36;23.50;38.40
17918;DHT22;9084;50.956;3.106;2022-08-19T08:58:09;23.60;34.50
17918;DHT22;9084;50.956;3.106;2022-08-19T09:00:43;23.70;30.60
17918;DHT22;9084;50.956;3.106;2022-08-19T09:03:26;23.80;30.50
17918;DHT22;9084;50.956;3.106;2022-08-19T09:06:06;23.90;28.40
17918;DHT22;9084;50.956;3.106;2022-08-19T09:08:56;23.90;26.00
17918;DHT22;9084;50.956;3.106;2022-08-19T09:16:43;23.60;26.80
17918;DHT22;9084;50.956;3.106;2022-08-19T09:19:09;23.50;36.20
17918;DHT22;9084;50.956;3.106;2022-08-19T09:21:36;23.40;41.00
17918;DHT22;9084;50.956;3.106;2022-08-19T09:24:02;23.30;44.10
17918;DHT22;9084;50.956;3.106;2022-08-19T09:26:30;23.20;46.50
17918;DHT22;9084;50.956;3.106;2022-08-19T09:29:00;23.10;42.60
17918;DHT22;9084;50.956;3.106;2022-08-19T09:31:28;23.10;46.50
17918;DHT22;9084;50.956;3.106;2022-08-19T09:33:55;23.20;48.60
17918;DHT22;9084;50.956;3.106;2022-08-19T09:36:29;23.10;49.10
17918;DHT22;9084;50.956;3.106;2022-08-19T09:38:58;23.00;50.30
17918;DHT22;9084;50.956;3.106;2022-08-19T09:41:28;22.90;59.80
17918;DHT22;9084;50.956;3.106;2022-08-19T09:43:58;22.90;59.40
17918;DHT22;9084;50.956;3.106;2022-08-19T09:46:26;22.90;60.30
17918;DHT22;9084;50.956;3.106;2022-08-19T09:48:53;23.00;57.10
17918;DHT22;9084;50.956;3.106;2022-08-19T09:51:23;23.00;52.40
17918;DHT22;9084;50.956;3.106;2022-08-19T09:53:50;23.10;52.60
17918;DHT22;9084;50.956;3.106;2022-08-19T09:56:22;23.20;46.80
17918;DHT22;9084;50.956;3.106;2022-08-19T09:58:49;23.50;41.70
17918;DHT22;9084;50.956;3.106;2022-08-19T10:01:26;23.90;29.80
17918;DHT22;9084;50.956;3.106;2022-08-19T10:03:55;24.20;21.60
17918;DHT22;9084;50.956;3.106;2022-08-19T10:06:25;24.50;12.80
17918;DHT22;9084;50.956;3.106;2022-08-19T10:08:56;24.70;5.90
17918;DHT22;9084;50.956;3.106;2022-08-19T10:11:24;24.80;4.30
17918;DHT22;9084;50.956;3.106;2022-08-19T10:13:53;24.90;2.60
17918;DHT22;9084;50.956;3.106;2022-08-19T10:16:23;25.00;1.00
17918;DHT22;9084;50.956;3.106;2022-08-19T10:18:53;25.20;1.00
17918;DHT22;9084;50.956;3.106;2022-08-19T10:21:25;25.30;1.00
17918;DHT22;9084;50.956;3.106;2022-08-19T10:23:53;25.20;1.00
17918;DHT22;9084;50.956;3.106;2022-08-19T10:26:29;25.10;1.00
17918;DHT22;9084;50.956;3.106;2022-08-19T10:28:58;25.10;1.00
17918;DHT22;9084;50.956;3.106;2022-08-19T10:31:27;25.10;1.00
17918;DHT22;9084;50.956;3.106;2022-08-19T10:33:54;25.00;1.00
17918;DHT22;9084;50.956;3.106;2022-08-19T10:36:26;24.80;1.00
17918;DHT22;9084;50.956;3.106;2022-08-19T10:38:55;24.70;1.00
17918;DHT22;9084;50.956;3.106;2022-08-19T10:41:31;24.60;1.00
17918;DHT22;9084;50.956;3.106;2022-08-19T10:44:03;24.70;4.70
17918;DHT22;9084;50.956;3.106;2022-08-19T10:46:29;24.80;6.90
17918;DHT22;9084;50.956;3.106;2022-08-19T10:49:00;24.90;1.50
17918;DHT22;9084;50.956;3.106;2022-08-19T10:51:27;25.10;1.00
17918;DHT22;9084;50.956;3.106;2022-08-19T10:54:14;25.40;1.00
17918;DHT22;9084;50.956;3.106;2022-08-19T10:56:43;25.70;1.00
17918;DHT22;9084;50.956;3.106;2022-08-19T10:59:26;25.90;1.00
17918;DHT22;9084;50.956;3.106;2022-08-19T11:01:58;25.80;1.00
17918;DHT22;9084;50.956;3.106;2022-08-19T11:04:25;25.50;1.00
17918;DHT22;9084;50.956;3.106;2022-08-19T11:06:51;25.10;1.00
17918;DHT22;9084;50.956;3.106;2022-08-19T11:09:20;24.80;1.00
17918;DHT22;9084;50.956;3.106;2022-08-19T11:11:50;24.50;1.00
17918;DHT22;9084;50.956;3.106;2022-08-19T11:14:20;24.50;1.00
17918;DHT22;9084;50.956;3.106;2022-08-19T11:16:50;24.80;1.00
17918;DHT22;9084;50.956;3.106;2022-08-19T11:19:18;25.10;1.00
17918;DHT22;9084;50.956;3.106;2022-08-19T11:21:47;25.50;1.00
17918;DHT22;9084;50.956;3.106;2022-08-19T11:24:22;25.80;1.00
17918;DHT22;9084;50.956;3.106;2022-08-19T11:26:49;26.00;1.00
17918;DHT22;9084;50.956;3.106;2022-08-19T11:29:18;26.00;1.00
17918;DHT22;9084;50.956;3.106;2022-08-19T11:31:49;26.00;1.00
17918;DHT22;9084;50.956;3.106;2022-08-19T11:34:20;25.90;1.00
17918;DHT22;9084;50.956;3.106;2022-08-19T11:36:50;25.60;1.00
17918;DHT22;9084;50.956;3.106;2022-08-19T11:39:20;25.40;1.00
17918;DHT22;9084;50.956;3.106;2022-08-19T11:41:47;25.10;1.00
17918;DHT22;9084;50.956;3.106;2022-08-19T11:44:16;24.70;1.00
17918;DHT22;9084;50.956;3.106;2022-08-19T11:46:43;24.30;36.00
17918;DHT22;9084;50.956;3.106;2022-08-19T11:49:12;23.90;86.60
17918;DHT22;9084;50.956;3.106;2022-08-19T11:51:39;23.40;99.90
17918;DHT22;9084;50.956;3.106;2022-08-19T11:54:08;22.90;99.90
17918;DHT22;9084;50.956;3.106;2022-08-19T11:56:36;22.60;99.90
17918;DHT22;9084;50.956;3.106;2022-08-19T11:59:02;22.30;99.90
17918;DHT22;9084;50.956;3.106;2022-08-19T12:01:30;22.10;99.90
17918;DHT22;9084;50.956;3.106;2022-08-19T12:03:59;21.80;99.90
17918;DHT22;9084;50.956;3.106;2022-08-19T12:06:29;21.70;99.90
17918;DHT22;9084;50.956;3.106;2022-08-19T12:08:56;21.50;99.90
17918;DHT22;9084;50.956;3.106;2022-08-19T12:11:24;21.50;99.90
17918;DHT22;9084;50.956;3.106;2022-08-19T12:13:50;21.50;99.90
17918;DHT22;9084;50.956;3.106;2022-08-19T12:16:22;21.60;99.90
17918;DHT22;9084;50.956;3.106;2022-08-19T12:18:51;21.90;99.90
17918;DHT22;9084;50.956;3.106;2022-08-19T12:21:23;22.20;99.90
17918;DHT22;9084;50.956;3.106;2022-08-19T12:23:51;22.40;99.90
17918;DHT22;9084;50.956;3.106;2022-08-19T12:26:17;22.60;99.90
17918;DHT22;9084;50.956;3.106;2022-08-19T12:28:44;22.90;99.90
17918;DHT22;9084;50.956;3.106;2022-08-19T12:31:13;23.10;99.90
17918;DHT22;9084;50.956;3.106;2022-08-19T12:33:41;23.10;99.90
17918;DHT22;9084;50.956;3.106;2022-08-19T12:36:10;23.00;99.90
17918;DHT22;9084;50.956;3.106;2022-08-19T12:38:38;23.10;99.90
17918;DHT22;9084;50.956;3.106;2022-08-19T12:41:05;22.70;99.90
17918;DHT22;9084;50.956;3.106;2022-08-19T12:43:36;22.90;99.90
17918;DHT22;9084;50.956;3.106;2022-08-19T12:46:04;23.00;99.90
17918;DHT22;9084;50.956;3.106;2022-08-19T12:48:32;23.30;99.90
17918;DHT22;9084;50.956;3.106;2022-08-19T12:50:59;23.40;99.90
17918;DHT22;9084;50.956;3.106;2022-08-19T12:53:27;23.60;99.90
17918;DHT22;9084;50.956;3.106;2022-08-19T12:55:57;23.60;99.90
17918;DHT22;9084;50.956;3.106;2022-08-19T12:58:26;23.70;99.90
17918;DHT22;9084;50.956;3.106;2022-08-19T13:00:54;23.80;99.90
17918;DHT22;9084;50.956;3.106;2022-08-19T13:03:22;23.80;99.90
17918;DHT22;9084;50.956;3.106;2022-08-19T13:05:54;23.80;99.90
17918;DHT22;9084;50.956;3.106;2022-08-19T13:08:19;23.80;99.90
17918;DHT22;9084;50.956;3.106;2022-08-19T13:10:46;23.80;99.90
17918;DHT22;9084;50.956;3.106;2022-08-19T13:13:14;23.80;97.10
17918;DHT22;9084;50.956;3.106;2022-08-19T13:15:43;23.70;99.80
17918;DHT22;9084;50.956;3.106;2022-08-19T13:18:13;23.60;99.10
17918;DHT22;9084;50.956;3.106;2022-08-19T13:20:40;23.70;79.40
17918;DHT22;9084;50.956;3.106;2022-08-19T13:23:09;23.70;79.80
17918;DHT22;9084;50.956;3.106;2022-08-19T13:25:37;23.80;99.40
17918;DHT22;9084;50.956;3.106;2022-08-19T13:28:03;24.00;98.70
17918;DHT22;9084;50.956;3.106;2022-08-19T13:30:29;24.30;93.60
17918;DHT22;9084;50.956;3.106;2022-08-19T13:33:15;24.40;71.90
17918;DHT22;9084;50.956;3.106;2022-08-19T13:35:49;24.50;53.30
17918;DHT22;9084;50.956;3.106;2022-08-19T13:38:18;24.50;62.80
17918;DHT22;9084;50.956;3.106;2022-08-19T13:40:46;24.60;50.60
17918;DHT22;9084;50.956;3.106;2022-08-19T13:43:15;24.70;50.60
17918;DHT22;9084;50.956;3.106;2022-08-19T13:45:40;24.70;32.10
17918;DHT22;9084;50.956;3.106;2022-08-19T13:48:09;24.50;36.20
17918;DHT22;9084;50.956;3.106;2022-08-19T13:50:41;24.50;50.90
17918;DHT22;9084;50.956;3.106;2022-08-19T13:53:08;24.50;50.10
17918;DHT22;9084;50.956;3.106;2022-08-19T13:55:38;24.40;26.10
17918;DHT22;9084;50.956;3.106;2022-08-19T13:58:04;24.40;31.80
17918;DHT22;9084;50.956;3.106;2022-08-19T14:00:40;24.40;24.00
17918;DHT22;9084;50.956;3.106;2022-08-19T14:03:06;24.50;23.70
17918;DHT22;9084;50.956;3.106;2022-08-19T14:05:35;24.60;24.20
17918;DHT22;9084;50.956;3.106;2022-08-19T14:08:06;24.70;9.80
17918;DHT22;9084;50.956;3.106;2022-08-19T14:10:34;24.60;3.90
17918;DHT22;9084;50.956;3.106;2022-08-19T14:13:02;24.60;6.20
17918;DHT22;9084;50.956;3.106;2022-08-19T14:15:29;24.80;8.20
17918;DHT22;9084;50.956;3.106;2022-08-19T14:17:56;24.90;1.70
17918;DHT22;9084;50.956;3.106;2022-08-19T14:20:25;24.70;5.80
17918;DHT22;9084;50.956;3.106;2022-08-19T14:22:50;24.70;1.00
17918;DHT22;9084;50.956;3.106;2022-08-19T14:25:20;24.60;1.00
17918;DHT22;9084;50.956;3.106;2022-08-19T14:27:49;24.40;1.00
17918;DHT22;9084;50.956;3.106;2022-08-19T14:30:21;24.30;1.00
17918;DHT22;9084;50.956;3.106;2022-08-19T14:32:49;24.10;2.60
17918;DHT22;9084;50.956;3.106;2022-08-19T14:35:16;24.00;1.00
17918;DHT22;9084;50.956;3.106;2022-08-19T14:37:45;24.00;1.00
17918;DHT22;9084;50.956;3.106;2022-08-19T14:40:13;24.00;1.00
17918;DHT22;9084;50.956;3.106;2022-08-19T14:42:42;24.00;1.00
17918;DHT22;9084;50.956;3.106;2022-08-19T14:45:10;24.10;1.00
17918;DHT22;9084;50.956;3.106;2022-08-19T14:47:37;24.20;1.00
17918;DHT22;9084;50.956;3.106;2022-08-19T14:50:05;24.30;1.00
17918;DHT22;9084;50.956;3.106;2022-08-19T14:52:34;24.30;1.00
17918;DHT22;9084;50.956;3.106;2022-08-19T14:55:00;24.50;1.00
17918;DHT22;9084;50.956;3.106;2022-08-19T14:57:26;24.60;1.00
17918;DHT22;9084;50.956;3.106;2022-08-19T14:59:55;24.70;1.00
17918;DHT22;9084;50.956;3.106;2022-08-19T15:02:22;24.80;1.00
17918;DHT22;9084;50.956;3.106;2022-08-19T15:04:53;24.80;1.00
17918;DHT22;9084;50.956;3.106;2022-08-19T15:07:21;25.00;1.00
17918;DHT22;9084;50.956;3.106;2022-08-19T15:09:49;25.00;1.00
17918;DHT22;9084;50.956;3.106;2022-08-19T15:12:16;25.10;1.00
17918;DHT22;9084;50.956;3.106;2022-08-19T15:14:44;25.00;1.00
17918;DHT22;9084;50.956;3.106;2022-08-19T15:17:16;25.10;1.00
17918;DHT22;9084;50.956;3.106;2022-08-19T15:19:42;25.10;1.00
17918;DHT22;9084;50.956;3.106;2022-08-19T15:22:12;25.00;1.00
17918;DHT22;9084;50.956;3.106;2022-08-19T15:24:40;24.90;1.00
17918;DHT22;9084;50.956;3.106;2022-08-19T15:27:08;25.00;1.00
17918;DHT22;9084;50.956;3.106;2022-08-19T15:29:34;24.90;1.00
17918;DHT22;9084;50.956;3.106;2022-08-19T15:32:03;24.80;1.00
17918;DHT22;9084;50.956;3.106;2022-08-19T15:34:34;24.70;1.00
17918;DHT22;9084;50.956;3.106;2022-08-19T15:37:04;24.70;1.00
17918;DHT22;9084;50.956;3.106;2022-08-19T15:39:30;24.60;1.00
17918;DHT22;9084;50.956;3.106;2022-08-19T15:41:56;24.50;1.00
17918;DHT22;9084;50.956;3.106;2022-08-19T15:44:27;24.50;1.00
17918;DHT22;9084;50.956;3.106;2022-08-19T15:46:55;24.40;1.00
17918;DHT22;9084;50.956;3.106;2022-08-19T15:49:21;24.40;1.00
17918;DHT22;9084;50.956;3.106;2022-08-19T15:51:49;24.50;1.00
17918;DHT22;9084;50.956;3.106;2022-08-19T15:54:19;24.60;1.00
17918;DHT22;9084;50.956;3.106;2022-08-19T15:56:51;24.70;1.00
17918;DHT22;9084;50.956;3.106;2022-08-19T15:59:36;24.70;1.00
17918;DHT22;9084;50.956;3.106;2022-08-19T16:02:26;24.70;1.00
17918;DHT22;9084;50.956;3.106;2022-08-19T16:05:15;24.80;1.00
17918;DHT22;9084;50.956;3.106;2022-08-19T16:07:59;24.80;1.00
17918;DHT22;9084;50.956;3.106;2022-08-19T16:10:25;24.80;1.00
17918;DHT22;9084;50.956;3.106;2022-08-19T16:12:55;24.80;1.00
17918;DHT22;9084;50.956;3.106;2022-08-19T16:15:22;24.80;1.00